Time;durP1;ratioP1;P1;durP2;ratioP2;P2;SDS_P1;SDS_P2;PMS_P1;PMS_P2;Temp;Humidity;BMP_temperature;BMP_pressure;BME280_temperature;BME280_humidity;BME280_pressure;Samples;Min_cycle;Max_cycle;Signal;HPM_P1;HPM_P2
2022/04/21 00:00:28;;;;;;;12.10;6.13;;;;;;;;;;5073780;28;20076;-64
2022/04/21 00:02:54;;;;;;;12.68;6.10;;;;;;;;;;5082511;28;20081;-64
2022/04/21 00:05:21;;;;;;;14.85;7.03;;;;;;;;;;5087084;28;20521;-64
2022/04/21 00:07:48;;;;;;;11.70;6.15;;;;;;;;;;5083350;28;20553;-64
2022/04/21 00:10:16;;;;;;;11.85;6.03;;;;;;;;;;5087977;28;20064;-64
2022/04/21 00:12:42;;;;;;;14.48;6.65;;;;;;;;;;5076434;28;20491;-64
2022/04/21 00:15:09;;;;;;;11.20;6.50;;;;;;;;;;5082739;28;20064;-64
2022/04/21 00:17:36;;;;;;;13.43;6.68;;;;;;;;;;5077264;28;20143;-64
2022/04/21 00:20:14;;;;;;;13.30;6.05;;;;;;;;;;5143121;27;20140;-65
2022/04/21 00:25:28;;;;;;;11.38;5.88;;;;;;;;;;5129376;27;20565;-65
2022/04/21 00:27:55;;;;;;;13.30;6.57;;;;;;;;;;5124336;27;20123;-64
2022/04/21 00:30:21;;;;;;;11.15;6.13;;;;;;;;;;5134284;27;20056;-65
2022/04/21 00:32:48;;;;;;;14.48;5.93;;;;;;;;;;5124875;27;20159;-64
2022/04/21 00:35:15;;;;;;;13.82;6.50;;;;;;;;;;5144781;27;20127;-65
2022/04/21 00:37:55;;;;;;;10.98;6.22;;;;;;;;;;5135440;27;20059;-65
2022/04/21 00:40:23;;;;;;;15.40;6.75;;;;;;;;;;5131592;27;20516;-65
2022/04/21 00:42:49;;;;;;;8.90;5.45;;;;;;;;;;5124846;27;20532;-64
2022/04/21 00:45:16;;;;;;;12.25;6.93;;;;;;;;;;5128450;27;20113;-65
2022/04/21 00:47:46;;;;;;;10.57;5.60;;;;;;;;;;5128508;27;20176;-65
2022/04/21 00:50:32;;;;;;;10.63;5.30;;;;;;;;;;5124353;27;20145;-65
2022/04/21 00:53:00;;;;;;;13.50;6.20;;;;;;;;;;5124631;27;20084;-65
2022/04/21 00:55:27;;;;;;;9.73;4.88;;;;;;;;;;5134506;27;20047;-65
2022/04/21 00:57:54;;;;;;;10.05;5.55;;;;;;;;;;5129172;27;20913;-65
2022/04/21 01:00:21;;;;;;;11.25;6.05;;;;;;;;;;5136936;27;20514;-65
2022/04/21 01:02:49;;;;;;;12.20;5.85;;;;;;;;;;5140709;27;20138;-65
2022/04/21 01:05:17;;;;;;;11.80;5.75;;;;;;;;;;5127982;27;20806;-65
2022/04/21 01:07:44;;;;;;;11.50;5.85;;;;;;;;;;5124991;27;20102;-65
2022/04/21 01:10:10;;;;;;;9.88;5.57;;;;;;;;;;5124374;27;20060;-65
2022/04/21 01:12:37;;;;;;;11.30;5.45;;;;;;;;;;5124114;27;20052;-65
2022/04/21 01:15:04;;;;;;;10.48;5.55;;;;;;;;;;5143690;27;20134;-65
2022/04/21 01:17:33;;;;;;;9.27;5.50;;;;;;;;;;5133679;27;20083;-65
2022/04/21 01:19:59;;;;;;;15.77;6.18;;;;;;;;;;5129316;27;20154;-65
2022/04/21 01:22:26;;;;;;;11.45;5.50;;;;;;;;;;5128453;27;20079;-65
2022/04/21 01:24:52;;;;;;;11.77;6.00;;;;;;;;;;5140026;27;20056;-65
2022/04/21 01:27:18;;;;;;;12.68;6.00;;;;;;;;;;5133477;27;20146;-65
2022/04/21 01:29:45;;;;;;;11.75;6.07;;;;;;;;;;5120034;27;20141;-65
2022/04/21 01:32:11;;;;;;;10.95;5.43;;;;;;;;;;5109273;27;20052;-65
2022/04/21 01:34:37;;;;;;;10.52;5.72;;;;;;;;;;5116125;27;20079;-65
2022/04/21 01:42:34;;;;;;;11.98;5.55;;;;;;;;;;5118208;27;20611;-65
2022/04/21 01:45:00;;;;;;;11.18;6.15;;;;;;;;;;5111153;27;20080;-65
2022/04/21 01:47:26;;;;;;;14.55;6.57;;;;;;;;;;5128487;27;20083;-65
2022/04/21 01:49:53;;;;;;;11.20;5.72;;;;;;;;;;5115920;27;20075;-64
2022/04/21 01:52:19;;;;;;;10.35;5.55;;;;;;;;;;5127546;27;20055;-65
2022/04/21 01:54:50;;;;;;;10.10;5.75;;;;;;;;;;5124312;27;20102;-65
2022/04/21 01:57:18;;;;;;;10.80;5.68;;;;;;;;;;5113369;27;20142;-66
2022/04/21 01:59:45;;;;;;;;;;;;;;;;;;5110339;27;20075;-66
2022/04/21 02:02:11;;;;;;;11.32;5.88;;;;;;;;;;5109228;27;45569;-65
2022/04/21 02:04:38;;;;;;;11.20;6.38;;;;;;;;;;5110395;27;20054;-65
2022/04/21 02:07:04;;;;;;;11.30;6.55;;;;;;;;;;5110689;27;20874;-65
2022/04/21 02:09:30;;;;;;;10.20;5.97;;;;;;;;;;5108461;27;20585;-65
2022/04/21 02:11:58;;;;;;;12.32;5.90;;;;;;;;;;5126057;27;20048;-65
2022/04/21 02:14:24;;;;;;;13.75;6.45;;;;;;;;;;5112301;27;20167;-65
2022/04/21 02:16:51;;;;;;;12.10;6.15;;;;;;;;;;5113837;27;20543;-65
2022/04/21 02:19:17;;;;;;;11.50;6.32;;;;;;;;;;5108083;27;20087;-65
2022/04/21 02:21:44;;;;;;;11.18;5.95;;;;;;;;;;5109325;27;20075;-65
2022/04/21 02:24:10;;;;;;;13.93;5.78;;;;;;;;;;5109406;27;20131;-65
2022/04/21 02:26:36;;;;;;;14.88;6.85;;;;;;;;;;5108840;27;20569;-65
2022/04/21 02:29:03;;;;;;;13.40;5.95;;;;;;;;;;5115433;27;20084;-65
2022/04/21 02:31:29;;;;;;;10.50;6.00;;;;;;;;;;5124107;27;20116;-65
2022/04/21 02:33:55;;;;;;;10.32;6.22;;;;;;;;;;5120488;27;20051;-65
2022/04/21 02:36:22;;;;;;;9.98;6.03;;;;;;;;;;5114609;27;20576;-65
2022/04/21 02:38:48;;;;;;;14.95;6.82;;;;;;;;;;5108403;27;20140;-65
2022/04/21 02:41:15;;;;;;;11.95;6.15;;;;;;;;;;5121339;27;20102;-65
2022/04/21 02:43:42;;;;;;;12.45;6.00;;;;;;;;;;5119654;27;20083;-65
2022/04/21 02:46:09;;;;;;;10.70;5.80;;;;;;;;;;5109143;27;20075;-65
2022/04/21 02:48:36;;;;;;;15.43;6.50;;;;;;;;;;5109874;27;20059;-65
2022/04/21 02:51:02;;;;;;;14.48;6.32;;;;;;;;;;5124870;27;20062;-65
2022/04/21 02:59:00;;;;;;;11.25;5.55;;;;;;;;;;5117148;27;20182;-65
2022/04/21 03:01:27;;;;;;;11.35;5.50;;;;;;;;;;5111064;27;20062;-65
2022/04/21 03:03:54;;;;;;;11.68;6.43;;;;;;;;;;5109038;27;20060;-65
2022/04/21 03:06:20;;;;;;;13.00;5.93;;;;;;;;;;5113001;27;20067;-65
2022/04/21 03:08:47;;;;;;;12.30;5.97;;;;;;;;;;5108982;27;20077;-65
2022/04/21 03:11:13;;;;;;;11.88;5.88;;;;;;;;;;5109269;27;20202;-65
2022/04/21 03:13:39;;;;;;;11.52;6.00;;;;;;;;;;5116175;27;20083;-65
2022/04/21 03:16:06;;;;;;;10.55;5.82;;;;;;;;;;5127376;27;20467;-65
2022/04/21 03:18:33;;;;;;;12.05;5.97;;;;;;;;;;5108282;27;20192;-65
2022/04/21 03:26:29;;;;;;;12.40;6.00;;;;;;;;;;5108939;28;20056;-65
2022/04/21 03:28:56;;;;;;;11.82;6.22;;;;;;;;;;5107578;27;20109;-65
2022/04/21 03:31:23;;;;;;;12.73;6.65;;;;;;;;;;5122798;27;20513;-65
2022/04/21 03:33:50;;;;;;;10.65;6.07;;;;;;;;;;5120772;27;20105;-65
2022/04/21 03:36:17;;;;;;;12.13;6.45;;;;;;;;;;5115583;27;20052;-65
2022/04/21 03:38:43;;;;;;;10.98;6.20;;;;;;;;;;5114398;27;20048;-65
2022/04/21 03:41:10;;;;;;;13.68;6.28;;;;;;;;;;5127868;27;20653;-65
2022/04/21 03:43:36;;;;;;;12.13;6.32;;;;;;;;;;5112328;27;20080;-65
2022/04/21 03:46:02;;;;;;;10.57;5.85;;;;;;;;;;5115361;27;20155;-65
2022/04/21 03:48:29;;;;;;;13.48;6.45;;;;;;;;;;5109856;27;20052;-64
2022/04/21 03:50:56;;;;;;;11.48;5.53;;;;;;;;;;5119033;27;20084;-64
2022/04/21 03:53:22;;;;;;;12.98;6.32;;;;;;;;;;5107687;27;20537;-64
2022/04/21 03:55:49;;;;;;;15.38;6.07;;;;;;;;;;5114739;27;20138;-65
2022/04/21 03:58:15;;;;;;;11.05;6.00;;;;;;;;;;5126056;27;20075;-65
2022/04/21 04:00:42;;;;;;;12.40;6.70;;;;;;;;;;5123513;27;20497;-65
2022/04/21 04:03:08;;;;;;;10.95;5.90;;;;;;;;;;5125839;27;20109;-65
2022/04/21 04:05:34;;;;;;;14.85;7.00;;;;;;;;;;5125710;27;20083;-65
2022/04/21 04:10:53;;;;;;;13.80;6.10;;;;;;;;;;5078315;27;20964;-65
2022/04/21 04:13:20;;;;;;;13.27;6.43;;;;;;;;;;5107117;27;20082;-65
2022/04/21 04:15:48;;;;;;;12.07;6.03;;;;;;;;;;5106306;27;20084;-65
2022/04/21 04:18:18;;;;;;;12.82;6.63;;;;;;;;;;5111462;27;20060;-65
2022/04/21 04:20:46;;;;;;;15.52;6.53;;;;;;;;;;5108582;27;20081;-65
2022/04/21 04:23:16;;;;;;;12.45;6.60;;;;;;;;;;5109228;27;20087;-65
2022/04/21 04:25:42;;;;;;;10.57;6.13;;;;;;;;;;5126432;27;20588;-65
2022/04/21 04:28:09;;;;;;;13.38;6.57;;;;;;;;;;5118323;27;20078;-65
2022/04/21 04:30:38;;;;;;;13.02;6.93;;;;;;;;;;5115991;27;20117;-65
2022/04/21 04:33:08;;;;;;;13.40;6.68;;;;;;;;;;5116450;27;20096;-65
2022/04/21 04:35:34;;;;;;;11.68;6.07;;;;;;;;;;5110060;27;20044;-65
2022/04/21 04:38:00;;;;;;;13.40;6.40;;;;;;;;;;5107286;27;20103;-65
2022/04/21 04:40:27;;;;;;;10.80;6.32;;;;;;;;;;5117934;27;20606;-65
2022/04/21 04:42:53;;;;;;;15.48;7.20;;;;;;;;;;5106388;28;20106;-65
2022/04/21 04:48:05;;;;;;;12.63;5.90;;;;;;;;;;5113482;27;20055;-65
2022/04/21 04:50:31;;;;;;;12.43;6.53;;;;;;;;;;5111349;27;20106;-65
2022/04/21 04:52:58;;;;;;;12.05;6.38;;;;;;;;;;5109380;27;20052;-65
2022/04/21 04:55:25;;;;;;;13.05;6.38;;;;;;;;;;5125233;27;20078;-65
2022/04/21 04:57:52;;;;;;;9.95;5.65;;;;;;;;;;5117058;27;20147;-65
2022/04/21 05:00:18;;;;;;;13.25;6.40;;;;;;;;;;5106385;27;20253;-65
2022/04/21 05:02:45;;;;;;;15.40;6.68;;;;;;;;;;5123441;27;20060;-65
2022/04/21 05:05:16;;;;;;;14.45;6.43;;;;;;;;;;5107832;27;20060;-65
2022/04/21 05:07:42;;;;;;;13.23;6.75;;;;;;;;;;5110555;27;20492;-65
2022/04/21 05:10:09;;;;;;;12.98;6.43;;;;;;;;;;5122168;27;20083;-64
2022/04/21 05:12:35;;;;;;;13.52;6.40;;;;;;;;;;5116564;27;20106;-65
2022/04/21 05:15:02;;;;;;;12.98;6.15;;;;;;;;;;5110660;27;20146;-65
2022/04/21 05:17:29;;;;;;;12.10;6.28;;;;;;;;;;5119490;27;20056;-65
2022/04/21 05:20:16;;;;;;;10.57;5.80;;;;;;;;;;5124073;27;20056;-65
2022/04/21 05:22:47;;;;;;;11.65;5.68;;;;;;;;;;5124278;27;20505;-65
2022/04/21 05:25:14;;;;;;;12.68;5.63;;;;;;;;;;5120964;27;20147;-65
2022/04/21 05:27:41;;;;;;;11.40;5.93;;;;;;;;;;5120086;27;20604;-65
2022/04/21 05:32:56;;;;;;;10.23;5.65;;;;;;;;;;5117781;27;20428;-65
2022/04/21 05:35:23;;;;;;;11.85;5.85;;;;;;;;;;5114023;27;20079;-64
2022/04/21 05:37:49;;;;;;;10.75;6.20;;;;;;;;;;5110929;27;20530;-65
2022/04/21 05:40:16;;;;;;;15.15;5.63;;;;;;;;;;5110990;27;20565;-64
2022/04/21 05:42:45;;;;;;;13.25;6.10;;;;;;;;;;5114512;27;20079;-64
2022/04/21 05:45:12;;;;;;;10.40;4.90;;;;;;;;;;5110267;27;20056;-64
2022/04/21 05:47:39;;;;;;;10.63;5.72;;;;;;;;;;5110909;27;20055;-64
2022/04/21 05:50:06;;;;;;;9.93;5.28;;;;;;;;;;5110611;27;20240;-64
2022/04/21 05:52:34;;;;;;;11.60;5.68;;;;;;;;;;5120945;27;20536;-64
2022/04/21 05:55:01;;;;;;;11.82;5.55;;;;;;;;;;5116745;27;20517;-64
2022/04/21 05:57:35;;;;;;;10.15;5.20;;;;;;;;;;5118833;27;20094;-64
2022/04/21 06:00:01;;;;;;;12.52;5.07;;;;;;;;;;5123270;27;20135;-65
2022/04/21 06:02:28;;;;;;;12.18;5.70;;;;;;;;;;5110405;28;20091;-66
2022/04/21 06:04:59;;;;;;;10.35;5.20;;;;;;;;;;5109940;27;20063;-66
2022/04/21 06:07:25;;;;;;;9.65;5.63;;;;;;;;;;5119386;27;20052;-66
2022/04/21 06:09:51;;;;;;;17.77;5.22;;;;;;;;;;5131163;27;20055;-66
2022/04/21 06:12:18;;;;;;;13.48;5.10;;;;;;;;;;5131125;27;20071;-66
2022/04/21 06:14:45;;;;;;;9.52;4.97;;;;;;;;;;5129905;27;20083;-66
2022/04/21 06:17:11;;;;;;;10.43;4.93;;;;;;;;;;5126279;27;20094;-65
2022/04/21 06:19:37;;;;;;;11.43;4.47;;;;;;;;;;5109245;27;20151;-65
2022/04/21 06:22:04;;;;;;;10.23;5.22;;;;;;;;;;5110760;27;20083;-65
2022/04/21 06:24:30;;;;;;;8.52;4.85;;;;;;;;;;5109971;27;20087;-66
2022/04/21 06:26:57;;;;;;;10.88;4.75;;;;;;;;;;5118573;27;20557;-65
2022/04/21 06:29:23;;;;;;;8.93;4.90;;;;;;;;;;5150230;27;20500;-66
2022/04/21 06:31:50;;;;;;;10.50;5.18;;;;;;;;;;5151113;27;20078;-66
2022/04/21 06:34:17;;;;;;;14.32;5.20;;;;;;;;;;5150982;27;20055;-66
2022/04/21 06:36:43;;;;;;;9.63;4.85;;;;;;;;;;5151126;27;20135;-68
2022/04/21 06:39:09;;;;;;;7.90;4.90;;;;;;;;;;5150746;27;20115;-67
2022/04/21 06:41:36;;;;;;;8.35;4.93;;;;;;;;;;5150016;27;20746;-69
2022/04/21 06:49:32;;;;;;;9.00;4.72;;;;;;;;;;5150568;27;20051;-65
2022/04/21 06:51:59;;;;;;;10.18;4.78;;;;;;;;;;5151120;27;20220;-64
2022/04/21 06:54:25;;;;;;;10.80;4.85;;;;;;;;;;5150617;27;20580;-65
2022/04/21 06:56:53;;;;;;;10.02;4.68;;;;;;;;;;5149490;27;20142;-66
2022/04/21 06:59:19;;;;;;;8.02;4.43;;;;;;;;;;5150625;27;20143;-64
2022/04/21 07:01:48;;;;;;;6.68;3.80;;;;;;;;;;5123732;27;20600;-65
2022/04/21 07:04:15;;;;;;;7.53;4.18;;;;;;;;;;5119674;27;20146;-67
2022/04/21 07:06:41;;;;;;;8.15;4.35;;;;;;;;;;5125518;27;20097;-65
2022/04/21 07:09:08;;;;;;;7.72;4.45;;;;;;;;;;5122965;27;20048;-67
2022/04/21 07:11:34;;;;;;;7.90;4.80;;;;;;;;;;5118602;27;20142;-63
2022/04/21 07:14:00;;;;;;;9.25;4.57;;;;;;;;;;5116067;27;20121;-64
2022/04/21 07:16:27;;;;;;;9.23;4.68;;;;;;;;;;5111587;27;20504;-67
2022/04/21 07:18:53;;;;;;;7.38;4.32;;;;;;;;;;5115613;27;20430;-67
2022/04/21 07:21:20;;;;;;;9.00;4.75;;;;;;;;;;5109031;27;20078;-67
2022/04/21 07:23:46;;;;;;;9.65;4.53;;;;;;;;;;5110669;27;20211;-67
2022/04/21 07:26:12;;;;;;;8.90;4.75;;;;;;;;;;5116715;27;20087;-67
2022/04/21 07:28:41;;;;;;;7.78;4.55;;;;;;;;;;5116159;27;20130;-67
2022/04/21 07:31:07;;;;;;;;;;;;;;;;;;5114307;27;20060;-67
2022/04/21 07:33:34;;;;;;;11.55;4.95;;;;;;;;;;5118760;27;42644;-67
2022/04/21 07:36:00;;;;;;;12.45;5.22;;;;;;;;;;5118755;27;20056;-67
2022/04/21 07:38:28;;;;;;;8.88;4.55;;;;;;;;;;5124210;27;20051;-66
2022/04/21 07:40:56;;;;;;;11.90;4.43;;;;;;;;;;5110183;27;20062;-67
2022/04/21 07:43:23;;;;;;;8.48;4.35;;;;;;;;;;5116010;27;20056;-65
2022/04/21 07:45:49;;;;;;;10.40;5.93;;;;;;;;;;5117048;27;20593;-65
2022/04/21 07:48:16;;;;;;;11.55;4.47;;;;;;;;;;5123143;27;20100;-65
2022/04/21 07:50:42;;;;;;;9.13;4.75;;;;;;;;;;5128428;27;20051;-65
2022/04/21 07:53:20;;;;;;;10.15;4.63;;;;;;;;;;5123411;27;20052;-67
2022/04/21 07:55:47;;;;;;;8.05;4.30;;;;;;;;;;5117081;27;20101;-65
2022/04/21 07:58:14;;;;;;;9.30;4.43;;;;;;;;;;5114129;27;20059;-65
2022/04/21 08:00:40;;;;;;;7.75;4.50;;;;;;;;;;5111046;27;20087;-65
2022/04/21 08:03:10;;;;;;;9.10;4.50;;;;;;;;;;5118330;27;21034;-65
2022/04/21 08:05:37;;;;;;;7.25;4.13;;;;;;;;;;5119402;27;20055;-65
2022/04/21 08:08:08;;;;;;;10.18;4.30;;;;;;;;;;5124321;27;20055;-65
2022/04/21 08:10:34;;;;;;;6.55;3.45;;;;;;;;;;5134373;27;20476;-65
2022/04/21 08:13:00;;;;;;;8.57;3.83;;;;;;;;;;5124548;27;20083;-65
2022/04/21 08:15:27;;;;;;;5.80;3.22;;;;;;;;;;5132366;27;20103;-66
2022/04/21 08:17:54;;;;;;;6.80;3.63;;;;;;;;;;5128147;27;20060;-66
2022/04/21 08:20:21;;;;;;;7.28;3.10;;;;;;;;;;5132987;27;20055;-66
2022/04/21 08:22:48;;;;;;;6.72;3.10;;;;;;;;;;5122661;27;20178;-66
2022/04/21 08:34:09;;;;;;;8.80;3.65;;;;;;;;;;5119467;27;20043;-66
2022/04/21 08:36:36;;;;;;;8.82;3.13;;;;;;;;;;5123517;27;20137;-66
2022/04/21 08:39:02;;;;;;;7.43;3.13;;;;;;;;;;5121969;27;20521;-66
2022/04/21 08:41:35;;;;;;;6.05;2.70;;;;;;;;;;5128724;27;20105;-66
2022/04/21 08:44:03;;;;;;;6.72;2.90;;;;;;;;;;5111426;27;20141;-66
2022/04/21 08:46:29;;;;;;;;;;;;;;;;;;5118699;27;20492;-67
2022/04/21 08:48:56;;;;;;;4.88;2.75;;;;;;;;;;5129899;27;45737;-67
2022/04/21 08:51:25;;;;;;;5.70;2.17;;;;;;;;;;5131254;27;20171;-67
2022/04/21 08:53:52;;;;;;;6.13;2.75;;;;;;;;;;5122247;27;20551;-67
2022/04/21 08:56:18;;;;;;;5.60;2.38;;;;;;;;;;5113362;27;20048;-67
2022/04/21 08:58:44;;;;;;;5.78;2.50;;;;;;;;;;5132335;27;20055;-67
2022/04/21 09:01:11;;;;;;;5.10;2.30;;;;;;;;;;5132558;27;20579;-67
2022/04/21 09:03:42;;;;;;;5.88;2.20;;;;;;;;;;5117409;27;20048;-67
2022/04/21 09:06:09;;;;;;;5.53;2.05;;;;;;;;;;5116912;27;20134;-66
2022/04/21 09:08:36;;;;;;;5.38;1.85;;;;;;;;;;5131570;27;20075;-66
2022/04/21 09:11:07;;;;;;;4.13;1.90;;;;;;;;;;5122922;27;20145;-66
2022/04/21 09:13:40;;;;;;;3.50;1.50;;;;;;;;;;5125842;27;20142;-66
2022/04/21 09:16:07;;;;;;;3.55;1.40;;;;;;;;;;5116000;27;20593;-66
2022/04/21 09:18:37;;;;;;;4.27;1.70;;;;;;;;;;5129376;27;20102;-66
2022/04/21 09:21:07;;;;;;;3.65;1.42;;;;;;;;;;5125411;27;20083;-66
2022/04/21 09:23:34;;;;;;;3.50;1.65;;;;;;;;;;5130939;27;20181;-66
2022/04/21 09:26:07;;;;;;;4.47;1.95;;;;;;;;;;5132315;27;20082;-67
2022/04/21 09:28:34;;;;;;;3.75;1.65;;;;;;;;;;5124121;27;20487;-66
2022/04/21 09:31:01;;;;;;;5.32;1.55;;;;;;;;;;5119049;27;20159;-66
2022/04/21 09:33:31;;;;;;;4.70;1.80;;;;;;;;;;5128537;27;20047;-66
2022/04/21 09:35:58;;;;;;;5.82;2.25;;;;;;;;;;5115302;27;20514;-66
2022/04/21 09:38:25;;;;;;;3.05;1.60;;;;;;;;;;5124698;27;20125;-66
2022/04/21 09:40:51;;;;;;;3.33;1.50;;;;;;;;;;5115987;27;20091;-66
2022/04/21 09:43:25;;;;;;;5.40;1.95;;;;;;;;;;5130932;27;20075;-67
2022/04/21 09:46:09;;;;;;;7.05;1.88;;;;;;;;;;5119605;27;20086;-66
2022/04/21 09:48:36;;;;;;;6.47;1.98;;;;;;;;;;5119906;27;20148;-66
2022/04/21 09:51:12;;;;;;;4.22;1.70;;;;;;;;;;5129895;27;20475;-66
2022/04/21 09:53:49;;;;;;;3.60;1.40;;;;;;;;;;5118558;27;20132;-66
2022/04/21 09:56:16;;;;;;;6.95;2.00;;;;;;;;;;5129818;27;20101;-66
2022/04/21 09:58:45;;;;;;;4.13;1.70;;;;;;;;;;5128976;27;20051;-66
2022/04/21 10:01:12;;;;;;;8.88;2.90;;;;;;;;;;5121868;27;20156;-66
2022/04/21 10:03:41;;;;;;;4.85;1.90;;;;;;;;;;5119571;27;20555;-66
2022/04/21 10:06:07;;;;;;;5.97;1.90;;;;;;;;;;5130425;27;20063;-66
2022/04/21 10:08:34;;;;;;;4.20;2.00;;;;;;;;;;5128927;27;20498;-66
2022/04/21 10:11:01;;;;;;;4.32;1.98;;;;;;;;;;5130851;27;20055;-66
2022/04/21 10:13:29;;;;;;;4.88;2.10;;;;;;;;;;5121675;27;20052;-66
2022/04/21 10:15:56;;;;;;;3.92;1.80;;;;;;;;;;5113297;27;20514;-66
2022/04/21 10:18:24;;;;;;;4.60;2.33;;;;;;;;;;5127611;27;20066;-67
2022/04/21 10:20:52;;;;;;;8.32;2.08;;;;;;;;;;5129790;27;20498;-66
2022/04/21 10:23:19;;;;;;;9.38;2.33;;;;;;;;;;5130404;27;20128;-66
2022/04/21 10:25:45;;;;;;;5.57;2.15;;;;;;;;;;5130723;27;20154;-66
2022/04/21 10:28:30;;;;;;;5.93;1.75;;;;;;;;;;5126269;27;20052;-66
2022/04/21 10:30:57;;;;;;;4.95;2.10;;;;;;;;;;5130860;27;20148;-66
2022/04/21 10:33:41;;;;;;;5.20;2.10;;;;;;;;;;5125749;27;20079;-67
2022/04/21 10:36:08;;;;;;;4.50;2.10;;;;;;;;;;5113910;27;20129;-66
2022/04/21 10:38:36;;;;;;;5.55;2.15;;;;;;;;;;5121962;27;20534;-66
2022/04/21 10:41:06;;;;;;;4.55;2.20;;;;;;;;;;5127699;27;20146;-66
2022/04/21 10:43:47;;;;;;;4.63;2.20;;;;;;;;;;5122332;27;20143;-66
2022/04/21 10:46:18;;;;;;;9.68;2.33;;;;;;;;;;5111146;27;20520;-66
2022/04/21 10:48:45;;;;;;;4.50;2.10;;;;;;;;;;5121472;27;20133;-66
2022/04/21 10:51:12;;;;;;;6.88;2.53;;;;;;;;;;5127868;27;20124;-65
2022/04/21 10:59:47;;;;;;;4.90;2.40;;;;;;;;;;5124139;27;20060;-64
2022/04/21 11:02:14;;;;;;;5.63;2.47;;;;;;;;;;5117795;27;20051;-65
2022/04/21 11:04:40;;;;;;;6.35;2.67;;;;;;;;;;5125326;27;20706;-66
2022/04/21 11:07:11;;;;;;;5.22;2.50;;;;;;;;;;5126427;27;20495;-67
2022/04/21 11:09:39;;;;;;;3.95;1.75;;;;;;;;;;5120661;27;20103;-66
2022/04/21 11:12:45;;;;;;;5.47;2.00;;;;;;;;;;5121574;27;20039;-64
2022/04/21 11:15:40;;;;;;;4.55;1.85;;;;;;;;;;5128006;27;20055;-65
2022/04/21 11:18:07;;;;;;;3.00;1.65;;;;;;;;;;5134860;27;20110;-64
2022/04/21 11:20:34;;;;;;;6.60;2.00;;;;;;;;;;5124172;27;20138;-65
2022/04/21 11:23:00;;;;;;;4.28;1.83;;;;;;;;;;5118946;27;20498;-65
2022/04/21 11:25:31;;;;;;;7.10;1.88;;;;;;;;;;5126019;27;20547;-65
2022/04/21 11:27:57;;;;;;;5.88;1.70;;;;;;;;;;5113830;27;20109;-65
2022/04/21 11:30:24;;;;;;;5.63;1.90;;;;;;;;;;5128865;27;20079;-64
2022/04/21 11:32:51;;;;;;;5.70;2.00;;;;;;;;;;5127152;27;20147;-66
2022/04/21 11:35:21;;;;;;;4.15;1.70;;;;;;;;;;5134601;27;20059;-66
2022/04/21 11:37:48;;;;;;;3.95;1.80;;;;;;;;;;5128953;27;20059;-66
2022/04/21 11:40:22;;;;;;;4.25;1.90;;;;;;;;;;5117662;27;20137;-66
2022/04/21 11:42:51;;;;;;;6.03;1.90;;;;;;;;;;5132112;27;20139;-66
2022/04/21 11:45:22;;;;;;;4.72;1.90;;;;;;;;;;5128223;27;20090;-66
2022/04/21 11:47:48;;;;;;;6.85;2.15;;;;;;;;;;5112796;27;20056;-65
2022/04/21 11:50:18;;;;;;;4.53;1.58;;;;;;;;;;5117444;27;20109;-66
2022/04/21 11:52:47;;;;;;;4.30;1.90;;;;;;;;;;5123255;27;20056;-66
2022/04/21 11:55:16;;;;;;;4.07;1.95;;;;;;;;;;5121758;27;20145;-66
2022/04/21 11:57:43;;;;;;;3.72;1.73;;;;;;;;;;5114350;27;20052;-66
2022/04/21 12:00:10;;;;;;;4.47;1.55;;;;;;;;;;5119287;27;20502;-66
2022/04/21 12:08:10;;;;;;;3.08;1.50;;;;;;;;;;5093593;27;20056;-66
2022/04/21 12:10:37;;;;;;;3.67;1.38;;;;;;;;;;5113541;27;20142;-65
2022/04/21 12:13:03;;;;;;;5.00;1.67;;;;;;;;;;5127099;27;20079;-66
2022/04/21 12:15:31;;;;;;;5.53;1.45;;;;;;;;;;5114646;27;20141;-66
2022/04/21 12:17:58;;;;;;;4.60;1.38;;;;;;;;;;5108648;27;20083;-66
2022/04/21 12:20:25;;;;;;;3.80;1.60;;;;;;;;;;5115930;27;20922;-66
2022/04/21 12:22:52;;;;;;;7.03;2.70;;;;;;;;;;5128200;27;20079;-66
2022/04/21 12:25:18;;;;;;;5.95;2.03;;;;;;;;;;5129344;27;20105;-66
2022/04/21 12:27:45;;;;;;;2.83;1.27;;;;;;;;;;5128410;27;20136;-66
2022/04/21 12:30:12;;;;;;;4.75;1.60;;;;;;;;;;5128402;27;21030;-66
2022/04/21 12:32:39;;;;;;;5.10;1.77;;;;;;;;;;5128440;27;20051;-68
2022/04/21 12:35:08;;;;;;;3.50;1.30;;;;;;;;;;5119484;27;20060;-66
2022/04/21 12:40:38;;;;;;;2.55;1.20;;;;;;;;;;5120892;27;20052;-66
2022/04/21 12:43:06;;;;;;;3.67;1.30;;;;;;;;;;5121586;27;20136;-64
2022/04/21 12:45:32;;;;;;;2.63;1.10;;;;;;;;;;5117712;27;20282;-65
2022/04/21 12:47:59;;;;;;;3.33;1.52;;;;;;;;;;5114274;27;20354;-65
2022/04/21 12:50:25;;;;;;;6.18;1.45;;;;;;;;;;5126391;27;20139;-64
2022/04/21 12:52:58;;;;;;;3.08;1.40;;;;;;;;;;5116498;27;20188;-65
2022/04/21 12:55:30;;;;;;;6.95;1.60;;;;;;;;;;5109428;27;20052;-65
2022/04/21 12:58:09;;;;;;;6.78;1.70;;;;;;;;;;5115628;27;20056;-65
2022/04/21 13:00:41;;;;;;;14.35;1.88;;;;;;;;;;5126443;27;20109;-65
2022/04/21 13:03:10;;;;;;;8.15;1.88;;;;;;;;;;5123470;27;20055;-65
2022/04/21 13:05:50;;;;;;;4.65;1.20;;;;;;;;;;5127450;27;20056;-64
2022/04/21 13:08:18;;;;;;;2.15;1.30;;;;;;;;;;5125527;27;20103;-65
2022/04/21 13:10:44;;;;;;;6.45;1.40;;;;;;;;;;5116687;27;20051;-64
2022/04/21 13:13:10;;;;;;;2.95;1.25;;;;;;;;;;5125954;27;20134;-65
2022/04/21 13:15:37;;;;;;;3.72;1.30;;;;;;;;;;5127685;27;20101;-64
2022/04/21 13:18:03;;;;;;;4.70;1.52;;;;;;;;;;5118766;27;20055;-66
2022/04/21 13:23:15;;;;;;;3.50;1.67;;;;;;;;;;5112879;27;20059;-65
2022/04/21 13:25:44;;;;;;;6.10;2.00;;;;;;;;;;5128017;27;20052;-64
2022/04/21 13:28:11;;;;;;;3.92;1.98;;;;;;;;;;5131127;27;20150;-64
2022/04/21 13:30:38;;;;;;;7.68;2.13;;;;;;;;;;5127026;27;20093;-64
2022/04/21 13:33:22;;;;;;;5.03;1.80;;;;;;;;;;5109230;27;20370;-65
2022/04/21 13:35:53;;;;;;;4.38;1.90;;;;;;;;;;5126854;27;20052;-65
2022/04/21 13:38:19;;;;;;;5.28;2.20;;;;;;;;;;5130745;27;20101;-66
2022/04/21 13:40:46;;;;;;;4.82;1.90;;;;;;;;;;5130854;27;20554;-67
2022/04/21 13:43:12;;;;;;;4.82;2.00;;;;;;;;;;5131180;27;20052;-65
2022/04/21 13:46:00;;;;;;;5.78;1.80;;;;;;;;;;5131079;27;20051;-65
2022/04/21 13:48:26;;;;;;;6.97;2.00;;;;;;;;;;5117079;27;20051;-65
2022/04/21 13:50:53;;;;;;;6.97;2.00;;;;;;;;;;5110614;27;20082;-65
2022/04/21 13:53:19;;;;;;;7.80;2.10;;;;;;;;;;5110499;27;20145;-65
2022/04/21 13:55:46;;;;;;;5.68;2.50;;;;;;;;;;5115275;27;20051;-65
2022/04/21 13:58:14;;;;;;;7.90;2.25;;;;;;;;;;5130653;27;20075;-68
2022/04/21 14:00:44;;;;;;;;;;;;;;;;;;5131278;27;20168;-67
2022/04/21 14:03:11;;;;;;;5.38;2.40;;;;;;;;;;5129909;27;45939;-67
2022/04/21 14:05:39;;;;;;;6.68;2.45;;;;;;;;;;5114789;27;20139;-66
2022/04/21 14:08:06;;;;;;;4.50;2.60;;;;;;;;;;5110382;27;20055;-65
2022/04/21 14:10:33;;;;;;;9.25;2.90;;;;;;;;;;5110040;27;20109;-65
2022/04/21 14:13:00;;;;;;;8.23;2.83;;;;;;;;;;5109953;27;20141;-65
2022/04/21 14:15:27;;;;;;;6.97;3.45;;;;;;;;;;5110451;27;20105;-66
2022/04/21 14:17:53;;;;;;;8.32;2.85;;;;;;;;;;5109843;27;20048;-66
2022/04/21 14:20:20;;;;;;;8.73;2.83;;;;;;;;;;5111199;27;20138;-66
2022/04/21 14:22:46;;;;;;;8.60;2.83;;;;;;;;;;5113201;27;20056;-66
2022/04/21 14:25:12;;;;;;;5.38;2.63;;;;;;;;;;5110089;27;20068;-64
2022/04/21 14:27:39;;;;;;;6.55;3.20;;;;;;;;;;5110111;27;20135;-64
2022/04/21 14:30:06;;;;;;;7.15;2.78;;;;;;;;;;5109110;28;20509;-65
2022/04/21 14:32:33;;;;;;;7.47;3.30;;;;;;;;;;5121406;27;20054;-64
2022/04/21 14:34:59;;;;;;;10.65;2.88;;;;;;;;;;5130496;27;20051;-64
2022/04/21 14:45:43;;;;;;;7.57;2.90;;;;;;;;;;5109452;27;20098;-65
2022/04/21 14:48:10;;;;;;;6.20;2.97;;;;;;;;;;5113606;27;20052;-65
2022/04/21 14:50:37;;;;;;;7.22;3.33;;;;;;;;;;5109596;28;20539;-64
2022/04/21 14:53:05;;;;;;;7.03;3.33;;;;;;;;;;5109984;27;20063;-65
2022/04/21 14:55:32;;;;;;;8.40;3.60;;;;;;;;;;5123666;27;20551;-66
2022/04/21 14:57:58;;;;;;;7.53;3.38;;;;;;;;;;5108810;27;20060;-68
2022/04/21 15:00:24;;;;;;;6.00;3.20;;;;;;;;;;5110573;27;20090;-64
2022/04/21 15:02:53;;;;;;;8.27;2.92;;;;;;;;;;5108796;27;20056;-64
2022/04/21 15:05:20;;;;;;;6.50;3.05;;;;;;;;;;5110928;27;20048;-66
2022/04/21 15:07:46;;;;;;;7.53;3.97;;;;;;;;;;5129932;27;20079;-65
2022/04/21 15:10:13;;;;;;;10.05;4.05;;;;;;;;;;5130400;27;20083;-64
2022/04/21 15:12:39;;;;;;;6.63;3.42;;;;;;;;;;5122051;27;20137;-64
2022/04/21 15:15:07;;;;;;;7.85;3.45;;;;;;;;;;5109981;27;20125;-64
2022/04/21 15:17:33;;;;;;;8.63;3.70;;;;;;;;;;5109240;27;20139;-63
2022/04/21 15:20:19;;;;;;;7.05;3.58;;;;;;;;;;5109044;27;20554;-64
2022/04/21 15:22:46;;;;;;;8.55;3.60;;;;;;;;;;5108685;27;20078;-64
2022/04/21 15:25:12;;;;;;;8.07;3.47;;;;;;;;;;5109191;27;20106;-64
2022/04/21 15:27:38;;;;;;;11.88;3.05;;;;;;;;;;5109111;27;20048;-64
2022/04/21 15:30:05;;;;;;;7.07;3.38;;;;;;;;;;5111452;27;20144;-63
2022/04/21 15:32:32;;;;;;;7.37;2.90;;;;;;;;;;5116557;27;20087;-64
2022/04/21 15:34:59;;;;;;;11.10;3.10;;;;;;;;;;5130176;27;20468;-64
2022/04/21 15:37:25;;;;;;;6.20;2.85;;;;;;;;;;5119499;27;20083;-64
2022/04/21 15:39:51;;;;;;;5.85;2.90;;;;;;;;;;5109053;27;20134;-63
2022/04/21 15:42:18;;;;;;;10.70;3.00;;;;;;;;;;5111272;27;20102;-64
2022/04/21 15:44:44;;;;;;;9.40;3.08;;;;;;;;;;5126087;27;20051;-64
2022/04/21 15:47:10;;;;;;;12.35;3.13;;;;;;;;;;5129609;27;20134;-64
2022/04/21 15:49:37;;;;;;;6.22;3.30;;;;;;;;;;5128439;27;20159;-64